sensor_id;sensor_type;location;lat;lon;timestamp;P1;durP1;ratioP1;P2;durP2;ratioP2
40459;SDS011;26164;51.138;16.952;2023-05-10T00:02:07;10.73;;;4.55;;
40459;SDS011;26164;51.138;16.952;2023-05-10T00:04:32;11.05;;;4.18;;
40459;SDS011;26164;51.138;16.952;2023-05-10T00:06:58;10.15;;;4.38;;
40459;SDS011;26164;51.138;16.952;2023-05-10T00:09:24;9.85;;;4.43;;
40459;SDS011;26164;51.138;16.952;2023-05-10T00:11:49;7.40;;;4.40;;
40459;SDS011;26164;51.138;16.952;2023-05-10T00:14:15;10.20;;;4.43;;
40459;SDS011;26164;51.138;16.952;2023-05-10T00:16:41;10.18;;;4.40;;
40459;SDS011;26164;51.138;16.952;2023-05-10T00:19:06;12.02;;;4.30;;
40459;SDS011;26164;51.138;16.952;2023-05-10T00:21:32;9.27;;;4.70;;
40459;SDS011;26164;51.138;16.952;2023-05-10T00:23:59;9.07;;;4.50;;
40459;SDS011;26164;51.138;16.952;2023-05-10T00:26:25;15.60;;;4.40;;
40459;SDS011;26164;51.138;16.952;2023-05-10T00:28:53;10.98;;;4.43;;
40459;SDS011;26164;51.138;16.952;2023-05-10T00:31:19;10.13;;;4.72;;
40459;SDS011;26164;51.138;16.952;2023-05-10T00:33:44;12.13;;;4.68;;
40459;SDS011;26164;51.138;16.952;2023-05-10T00:36:11;7.97;;;4.35;;
40459;SDS011;26164;51.138;16.952;2023-05-10T00:38:36;11.00;;;4.55;;
40459;SDS011;26164;51.138;16.952;2023-05-10T00:41:02;9.05;;;4.72;;
40459;SDS011;26164;51.138;16.952;2023-05-10T00:43:30;10.20;;;4.93;;
40459;SDS011;26164;51.138;16.952;2023-05-10T00:45:56;13.65;;;5.00;;
40459;SDS011;26164;51.138;16.952;2023-05-10T00:48:22;12.05;;;4.78;;
40459;SDS011;26164;51.138;16.952;2023-05-10T00:50:48;9.10;;;4.57;;
40459;SDS011;26164;51.138;16.952;2023-05-10T00:53:14;9.15;;;5.10;;
40459;SDS011;26164;51.138;16.952;2023-05-10T00:55:40;8.35;;;4.70;;
40459;SDS011;26164;51.138;16.952;2023-05-10T00:58:06;9.60;;;5.45;;
40459;SDS011;26164;51.138;16.952;2023-05-10T01:00:33;10.18;;;5.00;;
40459;SDS011;26164;51.138;16.952;2023-05-10T01:02:58;13.30;;;5.10;;
40459;SDS011;26164;51.138;16.952;2023-05-10T01:05:25;10.25;;;4.60;;
40459;SDS011;26164;51.138;16.952;2023-05-10T01:07:52;8.68;;;5.18;;
40459;SDS011;26164;51.138;16.952;2023-05-10T01:10:18;12.02;;;6.18;;
40459;SDS011;26164;51.138;16.952;2023-05-10T01:12:44;11.40;;;5.10;;
40459;SDS011;26164;51.138;16.952;2023-05-10T01:15:10;15.00;;;5.32;;
40459;SDS011;26164;51.138;16.952;2023-05-10T01:17:37;12.40;;;5.70;;
40459;SDS011;26164;51.138;16.952;2023-05-10T01:20:04;14.30;;;5.30;;
40459;SDS011;26164;51.138;16.952;2023-05-10T01:31:14;11.90;;;5.38;;
40459;SDS011;26164;51.138;16.952;2023-05-10T01:34:02;10.10;;;4.80;;
40459;SDS011;26164;51.138;16.952;2023-05-10T01:36:38;10.52;;;5.30;;
40459;SDS011;26164;51.138;16.952;2023-05-10T01:49:39;10.57;;;5.25;;
40459;SDS011;26164;51.138;16.952;2023-05-10T01:52:08;13.77;;;5.82;;
40459;SDS011;26164;51.138;16.952;2023-05-10T01:54:35;10.82;;;5.90;;
40459;SDS011;26164;51.138;16.952;2023-05-10T01:57:03;10.45;;;5.47;;
40459;SDS011;26164;51.138;16.952;2023-05-10T01:59:31;11.57;;;5.82;;
40459;SDS011;26164;51.138;16.952;2023-05-10T02:02:01;11.88;;;5.75;;
40459;SDS011;26164;51.138;16.952;2023-05-10T02:04:27;13.05;;;5.60;;
40459;SDS011;26164;51.138;16.952;2023-05-10T02:06:54;10.57;;;5.60;;
40459;SDS011;26164;51.138;16.952;2023-05-10T02:09:20;16.38;;;5.72;;
40459;SDS011;26164;51.138;16.952;2023-05-10T02:11:47;12.57;;;5.28;;
40459;SDS011;26164;51.138;16.952;2023-05-10T02:14:13;10.13;;;5.80;;
40459;SDS011;26164;51.138;16.952;2023-05-10T02:16:40;12.77;;;5.78;;
40459;SDS011;26164;51.138;16.952;2023-05-10T02:19:05;9.68;;;5.47;;
40459;SDS011;26164;51.138;16.952;2023-05-10T02:21:34;12.00;;;5.30;;
40459;SDS011;26164;51.138;16.952;2023-05-10T02:24:00;14.32;;;5.95;;
40459;SDS011;26164;51.138;16.952;2023-05-10T02:26:28;16.50;;;5.53;;
40459;SDS011;26164;51.138;16.952;2023-05-10T02:28:54;11.77;;;5.40;;
40459;SDS011;26164;51.138;16.952;2023-05-10T02:31:21;12.88;;;5.32;;
40459;SDS011;26164;51.138;16.952;2023-05-10T02:33:47;11.63;;;5.10;;
40459;SDS011;26164;51.138;16.952;2023-05-10T02:36:13;11.05;;;5.93;;
40459;SDS011;26164;51.138;16.952;2023-05-10T02:38:40;21.98;;;5.88;;
40459;SDS011;26164;51.138;16.952;2023-05-10T02:41:07;15.45;;;6.25;;
40459;SDS011;26164;51.138;16.952;2023-05-10T02:43:33;12.30;;;5.28;;
40459;SDS011;26164;51.138;16.952;2023-05-10T02:46:01;10.07;;;5.03;;
40459;SDS011;26164;51.138;16.952;2023-05-10T02:48:27;11.52;;;5.47;;
40459;SDS011;26164;51.138;16.952;2023-05-10T02:50:54;16.55;;;5.63;;
40459;SDS011;26164;51.138;16.952;2023-05-10T02:53:22;12.32;;;5.60;;
40459;SDS011;26164;51.138;16.952;2023-05-10T02:55:49;11.05;;;5.55;;
40459;SDS011;26164;51.138;16.952;2023-05-10T02:58:16;12.27;;;5.32;;
40459;SDS011;26164;51.138;16.952;2023-05-10T03:00:45;13.93;;;5.55;;
40459;SDS011;26164;51.138;16.952;2023-05-10T03:03:11;11.98;;;5.68;;
40459;SDS011;26164;51.138;16.952;2023-05-10T03:05:37;13.32;;;5.70;;
40459;SDS011;26164;51.138;16.952;2023-05-10T03:08:03;11.18;;;5.78;;
40459;SDS011;26164;51.138;16.952;2023-05-10T03:10:30;15.93;;;5.38;;
40459;SDS011;26164;51.138;16.952;2023-05-10T03:13:01;12.45;;;5.25;;
40459;SDS011;26164;51.138;16.952;2023-05-10T03:15:42;17.58;;;6.03;;
40459;SDS011;26164;51.138;16.952;2023-05-10T03:18:15;9.90;;;5.40;;
40459;SDS011;26164;51.138;16.952;2023-05-10T03:20:42;9.23;;;5.38;;
40459;SDS011;26164;51.138;16.952;2023-05-10T03:25:44;12.43;;;5.63;;
40459;SDS011;26164;51.138;16.952;2023-05-10T03:28:11;15.45;;;5.25;;
40459;SDS011;26164;51.138;16.952;2023-05-10T03:30:37;11.75;;;6.13;;
40459;SDS011;26164;51.138;16.952;2023-05-10T03:33:04;11.85;;;5.90;;
40459;SDS011;26164;51.138;16.952;2023-05-10T03:35:32;12.70;;;5.28;;
40459;SDS011;26164;51.138;16.952;2023-05-10T03:37:58;15.50;;;5.90;;
40459;SDS011;26164;51.138;16.952;2023-05-10T03:40:24;14.52;;;5.75;;
40459;SDS011;26164;51.138;16.952;2023-05-10T03:42:50;11.93;;;5.32;;
40459;SDS011;26164;51.138;16.952;2023-05-10T03:45:16;14.02;;;5.75;;
40459;SDS011;26164;51.138;16.952;2023-05-10T03:47:42;12.70;;;5.55;;
40459;SDS011;26164;51.138;16.952;2023-05-10T03:50:07;12.55;;;5.95;;
40459;SDS011;26164;51.138;16.952;2023-05-10T03:52:33;13.68;;;5.95;;
40459;SDS011;26164;51.138;16.952;2023-05-10T03:54:59;11.70;;;6.00;;
40459;SDS011;26164;51.138;16.952;2023-05-10T03:57:24;12.82;;;5.47;;
40459;SDS011;26164;51.138;16.952;2023-05-10T03:59:50;12.70;;;5.30;;
40459;SDS011;26164;51.138;16.952;2023-05-10T04:02:16;13.75;;;5.72;;
40459;SDS011;26164;51.138;16.952;2023-05-10T04:04:42;10.88;;;5.80;;
40459;SDS011;26164;51.138;16.952;2023-05-10T04:07:08;11.68;;;5.65;;
40459;SDS011;26164;51.138;16.952;2023-05-10T04:09:35;12.82;;;5.40;;
40459;SDS011;26164;51.138;16.952;2023-05-10T04:12:01;13.43;;;5.47;;
40459;SDS011;26164;51.138;16.952;2023-05-10T04:14:27;11.68;;;6.40;;
40459;SDS011;26164;51.138;16.952;2023-05-10T04:16:53;14.98;;;5.90;;
40459;SDS011;26164;51.138;16.952;2023-05-10T04:19:19;13.43;;;5.55;;
40459;SDS011;26164;51.138;16.952;2023-05-10T04:21:44;11.30;;;5.20;;
40459;SDS011;26164;51.138;16.952;2023-05-10T04:24:10;12.63;;;5.70;;
40459;SDS011;26164;51.138;16.952;2023-05-10T04:26:36;9.35;;;5.85;;
40459;SDS011;26164;51.138;16.952;2023-05-10T04:29:02;12.32;;;5.47;;
40459;SDS011;26164;51.138;16.952;2023-05-10T04:31:27;19.55;;;6.10;;
40459;SDS011;26164;51.138;16.952;2023-05-10T04:33:53;8.70;;;5.28;;
40459;SDS011;26164;51.138;16.952;2023-05-10T04:36:19;13.10;;;4.85;;
40459;SDS011;26164;51.138;16.952;2023-05-10T04:38:45;13.18;;;5.72;;
40459;SDS011;26164;51.138;16.952;2023-05-10T04:41:10;13.45;;;5.38;;
40459;SDS011;26164;51.138;16.952;2023-05-10T04:43:36;13.80;;;5.53;;
40459;SDS011;26164;51.138;16.952;2023-05-10T04:46:02;10.07;;;5.03;;
40459;SDS011;26164;51.138;16.952;2023-05-10T04:48:28;12.02;;;5.40;;
40459;SDS011;26164;51.138;16.952;2023-05-10T04:50:54;23.58;;;5.25;;
40459;SDS011;26164;51.138;16.952;2023-05-10T04:53:20;9.88;;;5.18;;
40459;SDS011;26164;51.138;16.952;2023-05-10T04:55:46;11.95;;;4.85;;
40459;SDS011;26164;51.138;16.952;2023-05-10T04:58:12;12.30;;;4.80;;
40459;SDS011;26164;51.138;16.952;2023-05-10T05:00:38;11.93;;;4.88;;
40459;SDS011;26164;51.138;16.952;2023-05-10T05:03:04;13.60;;;4.93;;
40459;SDS011;26164;51.138;16.952;2023-05-10T05:05:30;12.13;;;5.10;;
40459;SDS011;26164;51.138;16.952;2023-05-10T05:07:56;11.75;;;5.38;;
40459;SDS011;26164;51.138;16.952;2023-05-10T05:10:23;11.05;;;4.70;;
40459;SDS011;26164;51.138;16.952;2023-05-10T05:12:50;10.88;;;4.97;;
40459;SDS011;26164;51.138;16.952;2023-05-10T05:15:16;9.98;;;4.78;;
40459;SDS011;26164;51.138;16.952;2023-05-10T05:17:43;10.35;;;4.72;;
40459;SDS011;26164;51.138;16.952;2023-05-10T05:20:08;11.82;;;5.10;;
40459;SDS011;26164;51.138;16.952;2023-05-10T05:22:35;14.82;;;5.47;;
40459;SDS011;26164;51.138;16.952;2023-05-10T05:25:01;13.88;;;5.28;;
40459;SDS011;26164;51.138;16.952;2023-05-10T05:27:28;10.05;;;4.78;;
40459;SDS011;26164;51.138;16.952;2023-05-10T05:29:54;14.10;;;5.00;;
40459;SDS011;26164;51.138;16.952;2023-05-10T05:32:20;11.68;;;4.97;;
40459;SDS011;26164;51.138;16.952;2023-05-10T05:34:46;10.93;;;5.10;;
40459;SDS011;26164;51.138;16.952;2023-05-10T05:37:13;17.50;;;5.10;;
40459;SDS011;26164;51.138;16.952;2023-05-10T05:39:39;9.70;;;4.95;;
40459;SDS011;26164;51.138;16.952;2023-05-10T05:42:05;9.82;;;4.25;;
40459;SDS011;26164;51.138;16.952;2023-05-10T05:44:30;7.93;;;4.78;;
40459;SDS011;26164;51.138;16.952;2023-05-10T05:46:56;13.15;;;5.30;;
40459;SDS011;26164;51.138;16.952;2023-05-10T05:49:22;16.90;;;4.90;;
40459;SDS011;26164;51.138;16.952;2023-05-10T05:51:48;12.85;;;5.30;;
40459;SDS011;26164;51.138;16.952;2023-05-10T05:54:15;12.52;;;4.90;;
40459;SDS011;26164;51.138;16.952;2023-05-10T05:56:41;13.25;;;4.88;;
40459;SDS011;26164;51.138;16.952;2023-05-10T05:59:06;14.32;;;5.18;;
40459;SDS011;26164;51.138;16.952;2023-05-10T06:01:32;11.82;;;5.43;;
40459;SDS011;26164;51.138;16.952;2023-05-10T06:03:58;12.55;;;5.35;;
40459;SDS011;26164;51.138;16.952;2023-05-10T06:06:24;79.30;;;14.32;;
40459;SDS011;26164;51.138;16.952;2023-05-10T06:08:54;14.98;;;4.97;;
40459;SDS011;26164;51.138;16.952;2023-05-10T06:11:20;8.73;;;4.30;;
40459;SDS011;26164;51.138;16.952;2023-05-10T06:13:53;15.85;;;5.65;;
40459;SDS011;26164;51.138;16.952;2023-05-10T06:16:39;16.30;;;4.85;;
40459;SDS011;26164;51.138;16.952;2023-05-10T06:19:04;13.98;;;4.80;;
40459;SDS011;26164;51.138;16.952;2023-05-10T06:21:30;14.13;;;4.82;;
40459;SDS011;26164;51.138;16.952;2023-05-10T06:23:56;27.83;;;9.32;;
40459;SDS011;26164;51.138;16.952;2023-05-10T06:26:22;9.95;;;4.18;;
40459;SDS011;26164;51.138;16.952;2023-05-10T06:28:47;12.02;;;4.93;;
40459;SDS011;26164;51.138;16.952;2023-05-10T06:31:13;13.00;;;5.00;;
40459;SDS011;26164;51.138;16.952;2023-05-10T06:33:39;10.10;;;4.28;;
40459;SDS011;26164;51.138;16.952;2023-05-10T06:36:05;10.00;;;4.40;;
40459;SDS011;26164;51.138;16.952;2023-05-10T06:38:31;10.60;;;4.53;;
40459;SDS011;26164;51.138;16.952;2023-05-10T06:40:57;9.30;;;4.53;;
40459;SDS011;26164;51.138;16.952;2023-05-10T06:43:22;7.75;;;4.05;;
40459;SDS011;26164;51.138;16.952;2023-05-10T06:45:49;13.27;;;4.57;;
40459;SDS011;26164;51.138;16.952;2023-05-10T06:48:15;11.70;;;4.93;;
40459;SDS011;26164;51.138;16.952;2023-05-10T06:50:41;9.35;;;4.15;;
40459;SDS011;26164;51.138;16.952;2023-05-10T06:53:06;8.85;;;4.10;;
40459;SDS011;26164;51.138;16.952;2023-05-10T06:55:33;7.28;;;3.97;;
40459;SDS011;26164;51.138;16.952;2023-05-10T06:57:58;10.15;;;4.85;;
40459;SDS011;26164;51.138;16.952;2023-05-10T07:00:24;14.57;;;4.10;;
40459;SDS011;26164;51.138;16.952;2023-05-10T07:02:49;10.27;;;4.05;;
40459;SDS011;26164;51.138;16.952;2023-05-10T07:05:15;8.10;;;3.53;;
40459;SDS011;26164;51.138;16.952;2023-05-10T07:07:41;14.57;;;3.90;;
40459;SDS011;26164;51.138;16.952;2023-05-10T07:10:07;7.20;;;3.25;;
40459;SDS011;26164;51.138;16.952;2023-05-10T07:12:33;11.50;;;4.28;;
40459;SDS011;26164;51.138;16.952;2023-05-10T07:14:58;8.32;;;3.75;;
40459;SDS011;26164;51.138;16.952;2023-05-10T07:17:24;6.05;;;3.25;;
40459;SDS011;26164;51.138;16.952;2023-05-10T07:19:50;10.70;;;3.58;;
40459;SDS011;26164;51.138;16.952;2023-05-10T07:22:15;12.13;;;3.90;;
40459;SDS011;26164;51.138;16.952;2023-05-10T07:24:42;8.43;;;3.55;;
40459;SDS011;26164;51.138;16.952;2023-05-10T07:27:08;8.75;;;3.35;;
40459;SDS011;26164;51.138;16.952;2023-05-10T07:29:34;13.68;;;3.78;;
40459;SDS011;26164;51.138;16.952;2023-05-10T07:32:01;8.45;;;3.50;;
40459;SDS011;26164;51.138;16.952;2023-05-10T07:34:27;8.88;;;3.35;;
40459;SDS011;26164;51.138;16.952;2023-05-10T07:36:53;8.95;;;3.63;;
40459;SDS011;26164;51.138;16.952;2023-05-10T07:39:19;6.75;;;3.90;;
40459;SDS011;26164;51.138;16.952;2023-05-10T07:41:45;7.07;;;3.47;;
40459;SDS011;26164;51.138;16.952;2023-05-10T07:44:11;7.80;;;3.35;;
40459;SDS011;26164;51.138;16.952;2023-05-10T07:46:37;10.73;;;3.58;;
40459;SDS011;26164;51.138;16.952;2023-05-10T07:49:02;7.70;;;3.58;;
40459;SDS011;26164;51.138;16.952;2023-05-10T07:51:28;7.32;;;3.75;;
40459;SDS011;26164;51.138;16.952;2023-05-10T07:53:54;69.18;;;18.90;;
40459;SDS011;26164;51.138;16.952;2023-05-10T07:58:48;11.73;;;3.30;;
40459;SDS011;26164;51.138;16.952;2023-05-10T08:01:14;4.90;;;2.95;;
40459;SDS011;26164;51.138;16.952;2023-05-10T08:03:40;8.73;;;3.47;;
40459;SDS011;26164;51.138;16.952;2023-05-10T08:06:06;11.98;;;3.28;;
40459;SDS011;26164;51.138;16.952;2023-05-10T08:08:31;8.40;;;3.05;;
40459;SDS011;26164;51.138;16.952;2023-05-10T08:10:57;6.85;;;3.00;;
40459;SDS011;26164;51.138;16.952;2023-05-10T08:13:23;7.95;;;3.50;;
40459;SDS011;26164;51.138;16.952;2023-05-10T08:15:48;8.02;;;3.13;;
40459;SDS011;26164;51.138;16.952;2023-05-10T08:18:14;7.47;;;3.13;;
40459;SDS011;26164;51.138;16.952;2023-05-10T08:20:39;5.22;;;2.63;;
40459;SDS011;26164;51.138;16.952;2023-05-10T08:23:05;8.25;;;3.10;;
40459;SDS011;26164;51.138;16.952;2023-05-10T08:25:31;8.10;;;3.20;;
40459;SDS011;26164;51.138;16.952;2023-05-10T08:27:57;5.38;;;2.85;;
40459;SDS011;26164;51.138;16.952;2023-05-10T08:30:22;5.05;;;2.50;;
40459;SDS011;26164;51.138;16.952;2023-05-10T08:32:48;5.50;;;2.40;;
40459;SDS011;26164;51.138;16.952;2023-05-10T08:35:15;9.40;;;2.88;;
40459;SDS011;26164;51.138;16.952;2023-05-10T08:37:41;7.57;;;2.75;;
40459;SDS011;26164;51.138;16.952;2023-05-10T08:40:06;8.18;;;2.75;;
40459;SDS011;26164;51.138;16.952;2023-05-10T08:42:35;6.45;;;2.90;;
40459;SDS011;26164;51.138;16.952;2023-05-10T08:45:03;5.60;;;2.75;;
40459;SDS011;26164;51.138;16.952;2023-05-10T08:47:30;8.13;;;3.25;;
40459;SDS011;26164;51.138;16.952;2023-05-10T08:49:56;6.68;;;3.08;;
40459;SDS011;26164;51.138;16.952;2023-05-10T08:52:23;6.57;;;2.47;;
40459;SDS011;26164;51.138;16.952;2023-05-10T08:54:50;7.63;;;3.25;;
40459;SDS011;26164;51.138;16.952;2023-05-10T08:57:16;7.97;;;2.95;;
40459;SDS011;26164;51.138;16.952;2023-05-10T08:59:42;10.43;;;2.80;;
40459;SDS011;26164;51.138;16.952;2023-05-10T09:02:09;7.80;;;2.85;;
40459;SDS011;26164;51.138;16.952;2023-05-10T09:04:35;6.45;;;2.58;;
40459;SDS011;26164;51.138;16.952;2023-05-10T09:07:01;12.15;;;2.90;;
40459;SDS011;26164;51.138;16.952;2023-05-10T09:09:27;10.38;;;3.55;;
40459;SDS011;26164;51.138;16.952;2023-05-10T09:11:53;3.70;;;2.05;;
40459;SDS011;26164;51.138;16.952;2023-05-10T09:14:19;6.75;;;2.92;;
40459;SDS011;26164;51.138;16.952;2023-05-10T09:16:45;3.92;;;2.20;;
40459;SDS011;26164;51.138;16.952;2023-05-10T09:19:11;6.72;;;2.22;;
40459;SDS011;26164;51.138;16.952;2023-05-10T09:21:38;4.47;;;2.20;;
40459;SDS011;26164;51.138;16.952;2023-05-10T09:24:04;6.43;;;2.30;;
40459;SDS011;26164;51.138;16.952;2023-05-10T09:26:30;6.07;;;2.10;;
40459;SDS011;26164;51.138;16.952;2023-05-10T09:28:59;6.78;;;2.35;;
40459;SDS011;26164;51.138;16.952;2023-05-10T09:31:42;5.55;;;2.50;;
40459;SDS011;26164;51.138;16.952;2023-05-10T09:34:08;11.63;;;2.38;;
40459;SDS011;26164;51.138;16.952;2023-05-10T09:36:36;6.35;;;2.55;;
40459;SDS011;26164;51.138;16.952;2023-05-10T09:39:14;7.80;;;2.67;;
40459;SDS011;26164;51.138;16.952;2023-05-10T09:41:40;6.28;;;2.40;;
40459;SDS011;26164;51.138;16.952;2023-05-10T09:44:07;6.88;;;2.55;;
40459;SDS011;26164;51.138;16.952;2023-05-10T09:46:36;4.82;;;2.53;;
40459;SDS011;26164;51.138;16.952;2023-05-10T09:49:02;5.82;;;2.70;;
40459;SDS011;26164;51.138;16.952;2023-05-10T09:51:29;9.00;;;2.70;;
40459;SDS011;26164;51.138;16.952;2023-05-10T09:56:36;8.90;;;2.45;;
40459;SDS011;26164;51.138;16.952;2023-05-10T09:59:04;7.45;;;2.80;;
40459;SDS011;26164;51.138;16.952;2023-05-10T10:01:31;9.10;;;2.58;;
40459;SDS011;26164;51.138;16.952;2023-05-10T10:03:57;5.70;;;2.85;;
40459;SDS011;26164;51.138;16.952;2023-05-10T10:06:24;12.02;;;3.00;;
40459;SDS011;26164;51.138;16.952;2023-05-10T10:08:50;6.35;;;2.83;;
40459;SDS011;26164;51.138;16.952;2023-05-10T10:11:16;4.38;;;2.45;;
40459;SDS011;26164;51.138;16.952;2023-05-10T10:13:42;6.18;;;2.47;;
40459;SDS011;26164;51.138;16.952;2023-05-10T10:16:08;5.70;;;2.83;;
40459;SDS011;26164;51.138;16.952;2023-05-10T10:18:35;11.32;;;2.30;;
40459;SDS011;26164;51.138;16.952;2023-05-10T10:21:07;4.40;;;2.00;;
40459;SDS011;26164;51.138;16.952;2023-05-10T10:23:37;10.07;;;2.45;;
40459;SDS011;26164;51.138;16.952;2023-05-10T10:26:03;6.05;;;2.22;;
40459;SDS011;26164;51.138;16.952;2023-05-10T10:31:45;5.47;;;2.00;;
40459;SDS011;26164;51.138;16.952;2023-05-10T10:34:27;9.10;;;1.90;;
40459;SDS011;26164;51.138;16.952;2023-05-10T10:36:54;3.90;;;2.20;;
40459;SDS011;26164;51.138;16.952;2023-05-10T10:39:19;6.07;;;1.95;;
40459;SDS011;26164;51.138;16.952;2023-05-10T10:41:50;6.10;;;2.40;;
40459;SDS011;26164;51.138;16.952;2023-05-10T10:49:22;6.03;;;1.90;;
40459;SDS011;26164;51.138;16.952;2023-05-10T10:57:32;5.65;;;2.00;;
40459;SDS011;26164;51.138;16.952;2023-05-10T10:59:53;3.70;;;1.77;;
40459;SDS011;26164;51.138;16.952;2023-05-10T11:07:52;10.35;;;2.22;;
40459;SDS011;26164;51.138;16.952;2023-05-10T11:10:21;4.25;;;1.88;;
40459;SDS011;26164;51.138;16.952;2023-05-10T11:13:26;5.30;;;2.15;;
40459;SDS011;26164;51.138;16.952;2023-05-10T11:15:39;2.75;;;1.60;;
40459;SDS011;26164;51.138;16.952;2023-05-10T11:18:18;3.95;;;2.20;;
40459;SDS011;26164;51.138;16.952;2023-05-10T11:20:44;4.70;;;2.35;;
40459;SDS011;26164;51.138;16.952;2023-05-10T11:23:15;8.07;;;2.10;;
40459;SDS011;26164;51.138;16.952;2023-05-10T11:25:43;3.15;;;1.90;;
40459;SDS011;26164;51.138;16.952;2023-05-10T11:28:12;13.27;;;2.10;;
40459;SDS011;26164;51.138;16.952;2023-05-10T11:30:41;6.97;;;1.90;;
40459;SDS011;26164;51.138;16.952;2023-05-10T11:33:07;6.00;;;2.00;;
40459;SDS011;26164;51.138;16.952;2023-05-10T11:35:37;5.75;;;1.85;;
40459;SDS011;26164;51.138;16.952;2023-05-10T11:38:05;8.20;;;2.28;;
40459;SDS011;26164;51.138;16.952;2023-05-10T11:40:30;8.98;;;2.00;;
40459;SDS011;26164;51.138;16.952;2023-05-10T11:42:56;3.55;;;1.27;;
40459;SDS011;26164;51.138;16.952;2023-05-10T11:45:23;6.65;;;2.00;;
40459;SDS011;26164;51.138;16.952;2023-05-10T11:47:49;9.90;;;2.60;;
40459;SDS011;26164;51.138;16.952;2023-05-10T11:50:15;8.38;;;2.50;;
40459;SDS011;26164;51.138;16.952;2023-05-10T11:52:41;7.50;;;1.85;;
40459;SDS011;26164;51.138;16.952;2023-05-10T11:55:06;8.15;;;2.00;;
40459;SDS011;26164;51.138;16.952;2023-05-10T11:57:32;5.20;;;1.50;;
40459;SDS011;26164;51.138;16.952;2023-05-10T11:59:58;4.60;;;1.60;;
40459;SDS011;26164;51.138;16.952;2023-05-10T12:02:24;4.05;;;1.60;;
40459;SDS011;26164;51.138;16.952;2023-05-10T12:04:50;7.38;;;1.42;;
40459;SDS011;26164;51.138;16.952;2023-05-10T12:07:16;6.22;;;1.65;;
40459;SDS011;26164;51.138;16.952;2023-05-10T12:09:43;5.72;;;1.90;;
40459;SDS011;26164;51.138;16.952;2023-05-10T12:12:08;3.83;;;1.40;;
40459;SDS011;26164;51.138;16.952;2023-05-10T12:14:34;7.72;;;1.40;;
40459;SDS011;26164;51.138;16.952;2023-05-10T12:17:00;6.18;;;1.60;;
40459;SDS011;26164;51.138;16.952;2023-05-10T12:19:26;5.40;;;1.30;;
40459;SDS011;26164;51.138;16.952;2023-05-10T12:21:51;2.63;;;1.60;;
40459;SDS011;26164;51.138;16.952;2023-05-10T12:24:17;2.97;;;1.63;;
40459;SDS011;26164;51.138;16.952;2023-05-10T12:26:44;9.75;;;1.70;;
40459;SDS011;26164;51.138;16.952;2023-05-10T12:29:14;3.97;;;1.60;;
40459;SDS011;26164;51.138;16.952;2023-05-10T12:34:25;7.90;;;1.40;;
40459;SDS011;26164;51.138;16.952;2023-05-10T12:36:52;3.97;;;1.58;;
40459;SDS011;26164;51.138;16.952;2023-05-10T12:39:17;6.93;;;1.52;;
40459;SDS011;26164;51.138;16.952;2023-05-10T12:41:43;2.78;;;1.60;;
40459;SDS011;26164;51.138;16.952;2023-05-10T12:44:09;4.05;;;1.30;;
40459;SDS011;26164;51.138;16.952;2023-05-10T12:46:35;3.97;;;1.20;;
40459;SDS011;26164;51.138;16.952;2023-05-10T12:49:00;2.92;;;1.38;;
40459;SDS011;26164;51.138;16.952;2023-05-10T12:51:26;3.28;;;1.20;;
40459;SDS011;26164;51.138;16.952;2023-05-10T12:53:52;9.02;;;1.83;;
40459;SDS011;26164;51.138;16.952;2023-05-10T12:56:18;7.82;;;2.10;;
40459;SDS011;26164;51.138;16.952;2023-05-10T12:58:44;3.25;;;1.30;;
40459;SDS011;26164;51.138;16.952;2023-05-10T13:01:13;2.90;;;1.25;;
40459;SDS011;26164;51.138;16.952;2023-05-10T13:03:39;3.80;;;1.13;;
40459;SDS011;26164;51.138;16.952;2023-05-10T13:06:05;3.10;;;1.23;;
40459;SDS011;26164;51.138;16.952;2023-05-10T13:08:31;4.93;;;1.30;;
40459;SDS011;26164;51.138;16.952;2023-05-10T13:10:59;6.65;;;1.42;;
40459;SDS011;26164;51.138;16.952;2023-05-10T13:13:25;6.82;;;1.20;;
40459;SDS011;26164;51.138;16.952;2023-05-10T13:15:51;7.28;;;1.20;;
40459;SDS011;26164;51.138;16.952;2023-05-10T13:18:17;5.20;;;1.27;;
40459;SDS011;26164;51.138;16.952;2023-05-10T13:20:43;5.38;;;1.10;;
40459;SDS011;26164;51.138;16.952;2023-05-10T13:23:09;2.92;;;1.00;;
40459;SDS011;26164;51.138;16.952;2023-05-10T13:25:35;4.35;;;1.15;;
40459;SDS011;26164;51.138;16.952;2023-05-10T13:28:01;2.35;;;0.90;;
40459;SDS011;26164;51.138;16.952;2023-05-10T13:30:27;4.57;;;1.10;;
40459;SDS011;26164;51.138;16.952;2023-05-10T13:32:54;2.25;;;1.45;;
40459;SDS011;26164;51.138;16.952;2023-05-10T13:35:19;2.17;;;1.00;;
40459;SDS011;26164;51.138;16.952;2023-05-10T13:37:45;3.70;;;1.00;;
40459;SDS011;26164;51.138;16.952;2023-05-10T13:40:11;2.35;;;1.20;;
40459;SDS011;26164;51.138;16.952;2023-05-10T13:42:36;7.32;;;1.30;;
40459;SDS011;26164;51.138;16.952;2023-05-10T13:45:03;11.13;;;1.05;;
40459;SDS011;26164;51.138;16.952;2023-05-10T13:47:28;6.15;;;1.23;;
40459;SDS011;26164;51.138;16.952;2023-05-10T13:49:54;7.38;;;1.10;;
40459;SDS011;26164;51.138;16.952;2023-05-10T13:52:20;2.58;;;1.00;;
40459;SDS011;26164;51.138;16.952;2023-05-10T13:54:46;4.07;;;1.00;;
40459;SDS011;26164;51.138;16.952;2023-05-10T13:57:11;3.65;;;1.08;;
40459;SDS011;26164;51.138;16.952;2023-05-10T13:59:39;2.40;;;1.17;;
40459;SDS011;26164;51.138;16.952;2023-05-10T14:02:05;4.45;;;1.23;;
40459;SDS011;26164;51.138;16.952;2023-05-10T14:04:31;4.15;;;1.10;;
40459;SDS011;26164;51.138;16.952;2023-05-10T14:06:57;3.88;;;1.10;;
40459;SDS011;26164;51.138;16.952;2023-05-10T14:09:23;3.80;;;1.00;;
40459;SDS011;26164;51.138;16.952;2023-05-10T14:11:48;2.00;;;0.90;;
40459;SDS011;26164;51.138;16.952;2023-05-10T14:14:14;5.43;;;0.90;;
40459;SDS011;26164;51.138;16.952;2023-05-10T14:16:43;5.38;;;1.23;;
40459;SDS011;26164;51.138;16.952;2023-05-10T14:19:10;4.80;;;0.95;;
40459;SDS011;26164;51.138;16.952;2023-05-10T14:21:36;6.10;;;0.90;;
40459;SDS011;26164;51.138;16.952;2023-05-10T14:24:02;3.45;;;0.80;;
40459;SDS011;26164;51.138;16.952;2023-05-10T14:26:28;3.10;;;1.00;;
40459;SDS011;26164;51.138;16.952;2023-05-10T14:28:54;4.38;;;1.30;;
40459;SDS011;26164;51.138;16.952;2023-05-10T14:31:19;5.07;;;0.98;;
40459;SDS011;26164;51.138;16.952;2023-05-10T14:33:46;2.67;;;1.00;;
40459;SDS011;26164;51.138;16.952;2023-05-10T14:36:11;6.45;;;1.08;;
40459;SDS011;26164;51.138;16.952;2023-05-10T14:38:38;2.35;;;1.10;;
40459;SDS011;26164;51.138;16.952;2023-05-10T14:41:03;5.75;;;1.20;;
40459;SDS011;26164;51.138;16.952;2023-05-10T14:43:29;2.97;;;0.88;;
40459;SDS011;26164;51.138;16.952;2023-05-10T14:45:55;3.90;;;1.00;;
40459;SDS011;26164;51.138;16.952;2023-05-10T14:48:21;1.20;;;0.70;;
40459;SDS011;26164;51.138;16.952;2023-05-10T14:50:46;3.42;;;1.38;;
40459;SDS011;26164;51.138;16.952;2023-05-10T14:53:12;2.25;;;0.88;;
40459;SDS011;26164;51.138;16.952;2023-05-10T14:55:38;3.35;;;1.10;;
40459;SDS011;26164;51.138;16.952;2023-05-10T14:58:04;4.65;;;0.80;;
40459;SDS011;26164;51.138;16.952;2023-05-10T15:00:30;2.15;;;1.05;;
40459;SDS011;26164;51.138;16.952;2023-05-10T15:02:56;3.63;;;1.00;;
40459;SDS011;26164;51.138;16.952;2023-05-10T15:05:22;3.17;;;1.20;;
40459;SDS011;26164;51.138;16.952;2023-05-10T15:07:48;2.90;;;1.00;;
40459;SDS011;26164;51.138;16.952;2023-05-10T15:10:14;2.42;;;0.75;;
40459;SDS011;26164;51.138;16.952;2023-05-10T15:12:40;2.78;;;1.00;;
40459;SDS011;26164;51.138;16.952;2023-05-10T15:15:05;5.43;;;0.93;;